Time;durP1;ratioP1;P1;durP2;ratioP2;P2;SDS_P1;SDS_P2;PMS_P1;PMS_P2;Temp;Humidity;BMP_temperature;BMP_pressure;BME280_temperature;BME280_humidity;BME280_pressure;Samples;Min_cycle;Max_cycle;Signal;HPM_P1;HPM_P2
2022/06/19 00:04:34;;;;;;;19.80;4.88;;;;;;;21.67;49.82;99223.38;10470651;28;20489;-62
2022/06/19 00:09:36;;;;;;;15.25;4.63;;;;;;;21.51;50.44;99213.72;10470209;28;20052;-62
2022/06/19 00:14:38;;;;;;;16.45;4.50;;;;;;;21.21;50.94;99201.28;10470641;28;20507;-62
2022/06/19 00:19:40;;;;;;;19.42;4.93;;;;;;;21.17;51.15;99193.81;10469660;28;20098;-62
2022/06/19 00:24:42;;;;;;;18.02;4.78;;;;;;;21.07;51.14;99186.88;10469546;28;20059;-62
2022/06/19 00:29:43;;;;;;;21.33;5.53;;;;;;;20.99;51.52;99191.41;10466133;28;20160;-62
2022/06/19 00:34:45;;;;;;;17.65;5.13;;;;;;;20.93;51.75;99190.31;10446899;28;20135;-62
2022/06/19 00:39:47;;;;;;;19.42;5.15;;;;;;;21.02;51.65;99181.28;10468531;28;20139;-62
2022/06/19 00:44:49;;;;;;;24.02;5.05;;;;;;;20.86;52.06;99162.78;10469480;28;20067;-62
2022/06/19 00:49:54;;;;;;;17.60;5.30;;;;;;;20.71;52.57;99158.38;10451297;28;20558;-62
2022/06/19 00:55:28;;;;;;;21.77;5.03;;;;;;;20.60;52.79;99148.16;10468069;28;20148;-62
2022/06/19 01:00:32;;;;;;;16.63;5.40;;;;;;;20.57;52.54;99136.00;10466250;28;20048;-62
2022/06/19 01:05:36;;;;;;;17.42;5.38;;;;;;;20.62;52.99;99136.31;10467524;28;20584;-62
2022/06/19 01:10:41;;;;;;;17.00;5.03;;;;;;;20.40;53.13;99115.03;10468348;28;20500;-62
2022/06/19 01:15:43;;;;;;;18.52;4.70;;;;;;;20.29;53.48;99109.06;10468387;28;20175;-62
2022/06/19 01:20:46;;;;;;;17.33;4.70;;;;;;;20.27;53.43;99102.28;10468470;28;20078;-62
2022/06/19 01:25:50;;;;;;;21.75;5.13;;;;;;;20.10;53.64;99085.59;10466298;28;20976;-62
2022/06/19 01:30:53;;;;;;;12.45;5.15;;;;;;;20.09;53.96;99099.88;10466201;28;20550;-62
2022/06/19 01:35:56;;;;;;;19.13;5.28;;;;;;;20.18;53.43;99103.31;10449720;28;20405;-61
2022/06/19 01:41:04;;;;;;;19.45;4.47;;;;;;;20.28;53.44;99107.44;10466082;28;20053;-62
2022/06/19 01:46:07;;;;;;;18.25;5.07;;;;;;;20.18;53.47;99111.28;10466550;28;20036;-62
2022/06/19 01:51:09;;;;;;;16.58;4.85;;;;;;;20.22;53.97;99097.50;10466394;28;20048;-62
2022/06/19 01:56:12;;;;;;;15.60;4.85;;;;;;;20.13;54.26;99098.53;10466116;28;20155;-62
2022/06/19 02:01:14;;;;;;;16.73;5.07;;;;;;;20.05;54.00;99089.78;10465895;28;20140;-61
2022/06/19 02:06:21;;;;;;;18.13;5.53;;;;;;;20.01;53.79;99083.16;10473873;28;20696;-61
2022/06/19 02:11:23;;;;;;;12.82;4.40;;;;;;;20.07;53.86;99077.97;10473771;28;20044;-62
2022/06/19 02:16:25;;;;;;;18.08;4.75;;;;;;;20.00;54.00;99060.25;10473710;28;20072;-62
2022/06/19 02:21:45;;;;;;;16.85;4.88;;;;;;;19.89;54.31;99058.81;10474210;28;20416;-61
2022/06/19 02:26:48;;;;;;;15.77;4.95;;;;;;;19.81;53.89;99044.69;10472828;28;20055;-62
2022/06/19 02:31:53;;;;;;;15.30;4.50;;;;;;;19.65;54.77;99042.09;10473876;28;20131;-62
2022/06/19 02:36:57;;;;;;;17.40;4.63;;;;;;;19.63;54.59;99033.50;10473984;28;20114;-61
2022/06/19 02:42:20;;;;;;;16.48;5.00;;;;;;;19.67;54.94;99035.63;10473803;28;20135;-62
2022/06/19 02:47:24;;;;;;;20.65;5.60;;;;;;;19.75;54.11;99025.00;10474442;28;20059;-61
2022/06/19 02:52:26;;;;;;;15.38;4.70;;;;;;;19.56;54.77;99006.84;10472536;28;20139;-62
2022/06/19 02:57:28;;;;;;;14.13;4.65;;;;;;;19.51;55.20;99008.34;10472317;28;20558;-62
2022/06/19 03:02:31;;;;;;;15.27;4.90;;;;;;;19.51;55.32;99011.81;10471630;28;20048;-62
2022/06/19 03:07:34;;;;;;;17.50;4.72;;;;;;;19.70;54.54;99005.28;10469032;28;20439;-62
2022/06/19 03:12:35;;;;;;;17.70;4.85;;;;;;;19.63;54.50;98999.00;10465682;28;20995;-62
2022/06/19 03:17:38;;;;;;;23.92;5.93;;;;;;;19.53;54.78;98999.22;10466087;28;20554;-61
2022/06/19 03:22:40;;;;;;;15.90;4.80;;;;;;;19.46;54.82;98999.06;10469826;28;20178;-61
2022/06/19 03:27:42;;;;;;;14.25;4.60;;;;;;;19.51;54.71;99005.69;10472710;28;20120;-62
2022/06/19 03:32:43;;;;;;;16.23;5.00;;;;;;;19.77;54.02;99012.38;10455505;28;20504;-61
2022/06/19 03:37:46;;;;;;;19.00;4.80;;;;;;;19.85;54.01;99008.91;10473616;28;20131;-61
2022/06/19 03:42:48;;;;;;;17.10;4.35;;;;;;;20.02;53.49;98999.88;10473010;28;20507;-62
2022/06/19 03:47:50;;;;;;;18.75;4.95;;;;;;;19.82;53.49;99002.13;10473121;28;20778;-62
2022/06/19 03:52:52;;;;;;;13.55;4.60;;;;;;;19.77;53.83;99011.56;10472740;28;20477;-62
2022/06/19 03:57:53;;;;;;;14.07;4.47;;;;;;;19.96;53.85;99019.97;10470667;28;20122;-62
2022/06/19 04:02:55;;;;;;;13.32;4.50;;;;;;;20.15;53.38;99008.09;10470248;28;20045;-62
2022/06/19 04:07:58;;;;;;;17.30;5.03;;;;;;;20.30;53.11;99003.69;10470321;28;20051;-63
2022/06/19 04:12:59;;;;;;;15.57;4.75;;;;;;;21.09;51.64;99006.75;10452230;28;20818;-62
2022/06/19 04:18:01;;;;;;;12.85;4.13;;;;;;;22.12;48.89;99020.09;10470787;28;20054;-62
2022/06/19 04:23:03;;;;;;;13.07;4.10;;;;;;;23.68;45.77;99012.69;10471180;28;20048;-62
2022/06/19 04:28:04;;;;;;;17.30;4.30;;;;;;;25.09;42.75;99000.16;10468467;28;20043;-61
2022/06/19 04:33:06;;;;;;;14.82;4.28;;;;;;;26.01;40.49;98973.19;10469758;28;20131;-62
2022/06/19 04:38:08;;;;;;;14.45;4.10;;;;;;;26.88;38.69;98965.22;10470495;28;20048;-62
2022/06/19 04:43:14;;;;;;;14.05;4.47;;;;;;;27.66;36.90;98956.41;10469951;28;20053;-61
2022/06/19 04:48:15;;;;;;;16.95;4.90;;;;;;;28.45;35.78;98953.53;10470931;28;20127;-62
2022/06/19 04:53:17;;;;;;;16.70;4.32;;;;;;;29.04;34.42;98956.13;10470757;28;20250;-62
2022/06/19 04:58:23;;;;;;;14.20;4.30;;;;;;;28.71;34.51;98974.66;10469770;28;20051;-61
2022/06/19 05:03:24;;;;;;;18.13;4.38;;;;;;;29.82;33.66;98993.44;10469218;28;20049;-61
2022/06/19 05:08:26;;;;;;;18.52;4.75;;;;;;;30.52;32.09;98984.06;10469822;28;20144;-61
2022/06/19 05:13:28;;;;;;;15.52;4.28;;;;;;;31.79;30.36;98968.78;10467905;28;20127;-61
2022/06/19 05:18:30;;;;;;;12.18;3.83;;;;;;;32.64;28.69;98982.47;10468850;28;20056;-62
2022/06/19 05:23:38;;;;;;;15.43;3.85;;;;;;;32.29;29.52;98965.03;10468532;28;20048;-62
2022/06/19 05:28:39;;;;;;;13.07;4.70;;;;;;;33.14;27.83;98989.41;10466934;28;20335;-61
2022/06/19 05:33:41;;;;;;;15.68;4.07;;;;;;;32.10;28.94;98978.91;10469237;28;20048;-62
2022/06/19 05:38:43;;;;;;;15.10;4.28;;;;;;;30.63;31.85;98990.47;10468608;28;20060;-61
2022/06/19 05:43:48;;;;;;;19.65;3.95;;;;;;;29.38;32.99;98981.38;10468212;28;20463;-62
2022/06/19 05:48:50;;;;;;;18.20;4.03;;;;;;;28.82;32.20;98967.66;10467994;28;20056;-62
2022/06/19 05:53:55;;;;;;;20.77;4.80;;;;;;;28.38;33.04;98971.63;10465989;28;20149;-62
2022/06/19 05:58:56;;;;;;;20.95;4.47;;;;;;;28.56;33.45;98966.22;10467959;28;20174;-62
2022/06/19 06:03:59;;;;;;;15.10;3.88;;;;;;;28.15;34.36;98975.03;10467667;28;20057;-62
2022/06/19 06:09:01;;;;;;;21.75;4.78;;;;;;;27.81;35.39;98972.19;10467700;28;20145;-62
2022/06/19 06:14:03;;;;;;;17.52;4.57;;;;;;;28.10;35.35;98955.25;10467394;28;20059;-62
2022/06/19 06:19:05;;;;;;;19.85;4.68;;;;;;;28.33;35.62;98952.69;10466982;28;20147;-62
2022/06/19 06:24:07;;;;;;;21.65;4.63;;;;;;;28.51;35.46;98955.31;10466138;28;20124;-63
2022/06/19 06:29:09;;;;;;;18.38;4.28;;;;;;;28.90;34.83;98954.72;10465401;28;20132;-62
2022/06/19 06:34:10;;;;;;;13.30;4.72;;;;;;;29.26;34.87;98947.44;10466623;28;20048;-62
2022/06/19 06:39:12;;;;;;;15.00;4.45;;;;;;;29.81;34.21;98956.75;10466919;28;20400;-62
2022/06/19 06:44:14;;;;;;;16.27;4.10;;;;;;;30.47;32.91;98948.91;10467068;28;20044;-62
2022/06/19 06:49:16;;;;;;;13.82;4.40;;;;;;;31.07;32.45;98946.38;10466825;28;20190;-62
2022/06/19 06:54:18;;;;;;;15.10;4.18;;;;;;;32.74;30.34;98949.22;10465131;28;20140;-62
2022/06/19 06:59:20;;;;;;;18.05;4.75;;;;;;;33.38;28.71;98939.13;10473050;28;20147;-62
2022/06/19 07:04:21;;;;;;;19.50;4.57;;;;;;;33.57;28.31;98946.56;10474011;28;20283;-62
2022/06/19 07:09:23;;;;;;;21.85;4.72;;;;;;;34.31;27.14;98938.16;10474609;28;20067;-62
2022/06/19 07:14:25;;;;;;;15.88;4.40;;;;;;;34.01;26.72;98955.19;10474959;28;20155;-62
2022/06/19 07:19:27;;;;;;;18.48;4.50;;;;;;;34.41;26.24;98955.31;10474033;28;20055;-62
2022/06/19 07:24:28;;;;;;;19.33;4.50;;;;;;;35.32;25.10;98939.00;10472023;28;20041;-63
2022/06/19 07:29:30;;;;;;;10.57;4.15;;;;;;;35.05;25.03;98943.94;10473899;28;20632;-62
2022/06/19 07:34:32;;;;;;;12.75;4.40;;;;;;;35.12;24.91;98948.00;10474451;28;20127;-62
2022/06/19 07:39:35;;;;;;;19.52;4.93;;;;;;;35.70;23.95;98937.53;10472245;28;20517;-63
2022/06/19 07:44:38;;;;;;;19.25;4.97;;;;;;;36.02;23.89;98940.66;10472758;28;20483;-63
2022/06/19 07:55:00;;;;;;;13.55;4.10;;;;;;;34.38;25.22;98946.88;10470073;28;20159;-64
2022/06/19 08:00:04;;;;;;;13.02;4.63;;;;;;;32.97;26.88;98967.84;10473292;28;20103;-64
2022/06/19 08:05:08;;;;;;;18.38;4.50;;;;;;;32.53;27.46;98967.22;10471105;28;20127;-65
2022/06/19 08:10:20;;;;;;;13.60;4.50;;;;;;;32.81;27.48;98974.22;10469817;28;20053;-65
2022/06/19 08:15:22;;;;;;;15.80;4.40;;;;;;;33.03;26.98;98983.09;10471139;28;20495;-64
2022/06/19 08:20:24;;;;;;;14.23;4.10;;;;;;;33.03;27.26;99007.47;10469467;28;20059;-65
2022/06/19 08:25:26;;;;;;;12.45;4.38;;;;;;;32.86;26.71;99029.22;10464882;28;20373;-65
2022/06/19 08:30:31;;;;;;;21.98;4.78;;;;;;;32.92;26.55;99022.00;10467967;28;20651;-65
2022/06/19 08:35:50;;;;;;;16.58;4.30;;;;;;;33.63;25.58;99032.34;10465683;28;20496;-65
2022/06/19 08:41:03;;;;;;;21.00;4.15;;;;;;;32.63;27.01;99051.25;10467682;28;20040;-65
2022/06/19 08:46:11;;;;;;;;;;;;;;;32.33;28.03;99061.69;10468355;28;20058;-65
2022/06/19 08:51:47;;;;;;;13.23;4.43;;;;;;;33.53;27.00;99080.25;10467334;28;19964;-64
2022/06/19 08:57:04;;;;;;;21.35;3.90;;;;;;;32.98;29.56;99110.38;10468819;28;20502;-65
2022/06/19 10:07:25;;;;;;;10.55;4.72;;;;;;;30.90;30.00;99234.50;10478744;22;20123;-84
2022/06/19 10:12:51;;;;;;;14.52;5.13;;;;;;;30.86;29.58;99225.25;10455505;28;20051;-83
2022/06/19 10:18:19;;;;;;;14.85;5.40;;;;;;;31.01;29.84;99232.84;10456597;28;20066;-84
2022/06/19 10:23:55;;;;;;;15.32;4.90;;;;;;;31.09;29.75;99227.88;10473636;28;20076;-84
2022/06/19 12:28:11;;;;;;;13.75;5.05;;;;;;;32.45;30.77;99026.38;10407042;28;20057;-85
2022/06/19 12:33:38;;;;;;;16.73;5.07;;;;;;;33.09;29.09;99017.28;10394308;28;20524;-84
2022/06/19 12:38:42;;;;;;;17.48;5.38;;;;;;;32.87;28.46;99002.97;10381890;28;20045;-83
2022/06/19 12:44:12;;;;;;;20.80;5.22;;;;;;;32.82;28.50;98978.56;10399393;28;20053;-84
2022/06/19 12:49:54;;;;;;;15.30;4.63;;;;;;;33.03;28.05;98953.28;10399046;28;20131;-84
2022/06/19 12:55:13;;;;;;;16.65;5.05;;;;;;;33.32;27.59;98938.31;10363105;28;20107;-83
2022/06/19 13:00:36;;;;;;;12.10;4.88;;;;;;;33.26;26.23;98935.81;10394494;28;20104;-85
2022/06/19 13:05:44;;;;;;;18.00;5.05;;;;;;;32.95;26.74;98932.88;10411744;28;20506;-86
2022/06/19 13:11:08;;;;;;;15.05;4.88;;;;;;;33.07;26.20;98918.34;10415085;28;20748;-85
2022/06/19 13:16:46;;;;;;;14.40;4.05;;;;;;;33.71;24.72;98900.81;10395446;28;20418;-84
2022/06/19 13:22:03;;;;;;;13.43;3.70;;;;;;;33.89;23.69;98907.66;10388497;28;20821;-85
2022/06/19 13:27:41;;;;;;;13.83;4.30;;;;;;;33.83;23.83;98910.38;10397243;28;20061;-85
2022/06/19 13:32:49;;;;;;;16.33;4.43;;;;;;;34.26;24.00;98887.41;10411343;28;20126;-85
2022/06/19 13:38:00;;;;;;;11.70;4.72;;;;;;;34.48;24.40;98890.72;10396082;28;20480;-84
2022/06/19 13:43:31;;;;;;;18.00;4.35;;;;;;;34.59;25.67;98897.75;10415268;28;20400;-84
2022/06/19 13:48:45;;;;;;;19.30;4.75;;;;;;;34.96;25.01;98910.28;10395890;28;20120;-85
2022/06/19 13:53:56;;;;;;;15.63;4.50;;;;;;;34.82;25.56;98915.41;10395583;28;20061;-85
2022/06/19 13:59:16;;;;;;;13.68;4.70;;;;;;;34.88;25.23;98918.94;10393810;28;20102;-85
2022/06/19 14:10:09;;;;;;;17.52;4.90;;;;;;;35.50;24.82;98943.88;10412582;28;20048;-85
2022/06/19 14:15:30;;;;;;;15.95;4.82;;;;;;;35.41;24.27;98950.16;10403928;28;20406;-85
2022/06/19 14:20:47;;;;;;;17.45;4.80;;;;;;;35.43;24.34;98951.50;10394344;28;20073;-85
2022/06/19 14:25:58;;;;;;;18.55;4.75;;;;;;;35.08;25.27;98951.56;10389218;28;20057;-85
2022/06/19 14:31:00;;;;;;;19.63;5.18;;;;;;;34.20;27.53;98972.63;10372587;28;20054;-85
2022/06/19 14:36:07;;;;;;;16.48;4.72;;;;;;;33.28;28.71;98996.81;10373595;28;20075;-85
2022/06/19 14:41:29;;;;;;;18.02;5.18;;;;;;;31.96;30.47;99006.56;10391986;28;20045;-84
2022/06/19 14:46:31;;;;;;;26.25;5.50;;;;;;;31.31;30.51;99023.47;10391258;28;20061;-85
2022/06/19 14:51:45;;;;;;;19.95;5.43;;;;;;;31.12;30.58;99022.13;10373072;28;20054;-84
2022/06/19 14:57:22;;;;;;;22.52;5.22;;;;;;;30.45;31.37;99028.44;10372872;28;20589;-84
2022/06/19 15:02:48;;;;;;;19.15;5.10;;;;;;;30.14;31.77;99035.09;10370483;28;20550;-84
2022/06/19 15:08:00;;;;;;;15.30;4.57;;;;;;;30.22;31.62;99042.81;10382413;28;20089;-84
2022/06/19 15:13:16;;;;;;;15.70;4.50;;;;;;;30.18;30.53;99090.22;10388518;28;20172;-84
2022/06/19 15:18:27;;;;;;;15.98;4.90;;;;;;;30.09;30.49;99113.19;10375764;28;20528;-84
2022/06/19 15:23:29;;;;;;;17.98;4.85;;;;;;;29.90;31.04;99119.78;10379290;28;20053;-84
2022/06/19 15:28:49;;;;;;;14.23;4.60;;;;;;;29.61;31.76;99115.31;10392018;28;20056;-85
2022/06/19 15:33:59;;;;;;;13.10;4.72;;;;;;;29.72;31.10;99118.00;10400101;28;20090;-84
2022/06/19 15:39:49;;;;;;;16.20;4.68;;;;;;;29.14;31.67;99121.66;10415134;28;20048;-84
2022/06/19 15:45:10;;;;;;;14.90;4.95;;;;;;;29.04;32.24;99135.69;10414091;28;20061;-84
2022/06/19 15:50:42;;;;;;;13.40;4.70;;;;;;;28.86;32.73;99133.88;10399518;28;20558;-85
2022/06/19 15:55:53;;;;;;;15.13;4.68;;;;;;;29.05;32.01;99156.97;10396931;28;20077;-84
2022/06/19 16:01:00;;;;;;;16.83;5.20;;;;;;;29.14;31.98;99164.72;10381870;28;20045;-84
2022/06/19 16:06:13;;;;;;;12.20;4.63;;;;;;;29.05;32.10;99185.81;10401769;28;20061;-84
2022/06/19 16:11:35;;;;;;;17.77;4.40;;;;;;;28.78;32.34;99185.28;10393240;28;20057;-84
2022/06/19 16:16:58;;;;;;;20.92;4.63;;;;;;;28.50;32.72;99197.66;10392820;28;20557;-84
2022/06/19 16:22:14;;;;;;;15.02;4.50;;;;;;;28.52;32.51;99187.47;10396604;28;20148;-85
2022/06/19 16:27:26;;;;;;;15.82;4.75;;;;;;;28.10;33.13;99202.56;10388883;28;20128;-85
2022/06/19 16:32:47;;;;;;;18.73;4.40;;;;;;;27.71;33.95;99213.66;10405338;28;20613;-84
2022/06/19 16:48:42;;;;;;;12.38;3.70;;;;;;;28.43;33.14;99204.97;10410454;28;20076;-84
2022/06/19 16:53:52;;;;;;;15.05;4.57;;;;;;;28.32;33.23;99209.22;10396142;28;20118;-84
2022/06/19 16:58:57;;;;;;;14.70;3.88;;;;;;;28.45;33.04;99206.38;10397821;28;20589;-84
2022/06/19 17:04:08;;;;;;;19.98;4.68;;;;;;;28.67;32.93;99201.38;10410818;28;20104;-84
2022/06/19 17:09:36;;;;;;;14.60;4.40;;;;;;;28.37;33.54;99198.63;10396443;28;20107;-83
2022/06/19 17:14:43;;;;;;;13.77;4.30;;;;;;;28.22;33.55;99198.13;10395375;28;20065;-84
2022/06/19 17:20:14;;;;;;;12.27;4.18;;;;;;;28.35;33.93;99189.13;10410226;28;20068;-83
2022/06/19 17:25:26;;;;;;;11.27;4.18;;;;;;;28.33;34.05;99196.59;10393434;28;20053;-84
2022/06/19 17:30:33;;;;;;;13.50;4.03;;;;;;;27.81;34.54;99181.78;10402977;28;20520;-83
2022/06/19 17:35:44;;;;;;;15.38;3.63;;;;;;;27.81;34.75;99179.91;10409944;28;20065;-84
2022/06/19 17:40:57;;;;;;;16.35;3.90;;;;;;;28.01;34.58;99177.03;10394478;28;20053;-84
2022/06/19 17:46:02;;;;;;;12.63;4.47;;;;;;;28.16;33.98;99167.56;10393448;28;20056;-84
2022/06/19 17:51:43;;;;;;;12.93;3.80;;;;;;;28.03;33.89;99170.38;10392089;28;20068;-84
2022/06/19 17:56:53;;;;;;;15.57;3.78;;;;;;;28.08;33.87;99175.09;10198126;29;20063;-84
2022/06/19 18:02:17;;;;;;;14.88;4.18;;;;;;;28.04;34.22;99173.91;10357641;28;20599;-83
2022/06/19 18:07:31;;;;;;;17.25;3.70;;;;;;;28.05;34.03;99181.75;10404453;28;20044;-83
2022/06/19 18:12:43;;;;;;;12.52;3.72;;;;;;;27.87;34.34;99188.97;10387598;28;20445;-83
2022/06/19 18:23:17;;;;;;;10.98;3.75;;;;;;;27.65;34.93;99185.00;10407674;28;20130;-83
2022/06/19 18:28:25;;;;;;;;;;;;;;;27.17;35.80;99190.91;10367159;28;20103;-83
2022/06/19 18:33:30;;;;;;;12.25;3.63;;;;;;;27.27;35.42;99193.94;10359353;28;19925;-84
2022/06/19 18:38:34;;;;;;;12.40;3.60;;;;;;;27.21;35.83;99196.66;10358663;28;20077;-86
2022/06/19 18:43:39;;;;;;;20.30;4.72;;;;;;;27.14;35.82;99196.69;10358554;28;20120;-84
2022/06/19 18:48:54;;;;;;;12.27;3.70;;;;;;;26.90;36.56;99200.09;10358320;28;20046;-85
2022/06/19 18:53:56;;;;;;;12.80;4.30;;;;;;;26.78;36.62;99217.06;10361073;28;20069;-81
2022/06/19 18:58:59;;;;;;;13.18;4.00;;;;;;;26.60;36.94;99207.03;10364603;28;20510;-81
2022/06/19 19:04:03;;;;;;;10.55;3.83;;;;;;;26.46;37.36;99205.41;10365594;28;20150;-81
2022/06/19 19:09:28;;;;;;;12.45;3.85;;;;;;;26.26;37.75;99205.44;10346256;28;20045;-81
2022/06/19 19:14:31;;;;;;;14.20;4.20;;;;;;;26.18;37.51;99200.28;10368142;28;20070;-81
2022/06/19 19:19:33;;;;;;;12.38;3.67;;;;;;;26.06;37.62;99215.38;10360404;28;20041;-81
2022/06/19 19:24:37;;;;;;;13.05;4.93;;;;;;;25.86;38.45;99212.69;10362519;28;20057;-81
2022/06/19 19:29:40;;;;;;;16.27;3.80;;;;;;;25.81;38.46;99215.16;10392531;28;20057;-81
2022/06/19 19:34:44;;;;;;;11.35;3.67;;;;;;;25.68;38.86;99219.69;10391775;28;20111;-81
2022/06/19 19:39:55;;;;;;;13.13;3.90;;;;;;;25.49;39.26;99226.66;10413507;28;20525;-81
2022/06/19 19:44:57;;;;;;;11.90;4.32;;;;;;;25.39;39.25;99226.25;10399598;28;20462;-82
2022/06/19 19:49:59;;;;;;;14.48;4.03;;;;;;;25.27;39.23;99233.19;10400615;28;20057;-82
2022/06/19 19:55:02;;;;;;;12.77;3.95;;;;;;;25.16;39.71;99233.78;10401237;28;20118;-81
2022/06/19 20:00:05;;;;;;;16.88;4.35;;;;;;;24.98;39.99;99238.84;10399524;28;20053;-82
2022/06/19 20:05:07;;;;;;;14.13;3.90;;;;;;;24.74;40.44;99244.72;10400020;28;20510;-84
2022/06/19 20:15:32;;;;;;;11.88;4.05;;;;;;;24.50;40.57;99245.19;10416799;28;20560;-83
2022/06/19 20:20:38;;;;;;;11.45;3.95;;;;;;;24.36;41.02;99224.75;10399345;28;20053;-83
2022/06/19 20:25:55;;;;;;;15.07;3.47;;;;;;;24.24;41.36;99236.00;10414449;28;20111;-83
2022/06/19 20:30:59;;;;;;;12.85;3.65;;;;;;;24.32;41.25;99236.84;10401031;28;20084;-83
2022/06/19 20:36:04;;;;;;;13.88;4.38;;;;;;;24.14;41.42;99234.69;10396617;28;20080;-83
2022/06/19 20:46:27;;;;;;;15.82;4.00;;;;;;;23.92;42.06;99241.06;10416916;28;20111;-82
2022/06/19 20:51:29;;;;;;;12.65;3.78;;;;;;;23.74;42.41;99249.53;10391902;28;20053;-82
2022/06/19 20:56:32;;;;;;;10.77;3.65;;;;;;;23.80;42.34;99246.09;10395234;28;20148;-83
2022/06/19 21:01:34;;;;;;;13.90;3.60;;;;;;;23.73;42.70;99233.72;10397884;28;20876;-83
2022/06/19 21:06:37;;;;;;;10.70;3.53;;;;;;;23.74;42.73;99232.69;10397102;28;20061;-83
2022/06/19 21:11:38;;;;;;;12.73;4.10;;;;;;;23.62;42.89;99231.53;10393666;28;20135;-83
2022/06/19 21:16:41;;;;;;;11.38;3.70;;;;;;;23.54;42.78;99237.84;10387605;28;20060;-83
2022/06/19 21:21:46;;;;;;;15.30;3.92;;;;;;;23.52;43.13;99236.38;10390470;28;20057;-84
2022/06/19 21:26:49;;;;;;;15.80;3.90;;;;;;;23.52;43.07;99234.53;10410312;28;20057;-83
2022/06/19 21:31:52;;;;;;;11.98;3.90;;;;;;;23.51;43.28;99248.09;10392467;28;20503;-83
2022/06/19 21:36:54;;;;;;;10.50;4.07;;;;;;;23.36;43.45;99258.78;10373293;28;20499;-83
2022/06/19 21:41:57;;;;;;;11.60;3.53;;;;;;;23.27;43.70;99259.91;10402316;28;20057;-83
2022/06/19 21:47:00;;;;;;;10.82;3.47;;;;;;;23.13;44.14;99263.44;10385903;28;20107;-83
2022/06/19 21:52:03;;;;;;;11.25;3.70;;;;;;;22.96;44.51;99273.53;10391212;28;20077;-83
2022/06/19 21:57:05;;;;;;;12.32;3.80;;;;;;;22.75;45.09;99268.13;10392646;28;20441;-83
2022/06/19 22:08:38;;;;;;;14.13;4.13;;;;;;;22.25;46.30;99265.31;10409978;28;20048;-83
2022/06/19 22:13:40;;;;;;;15.93;4.13;;;;;;;22.07;46.17;99270.16;10394191;28;20423;-83
2022/06/19 22:18:46;;;;;;;11.45;3.55;;;;;;;22.23;45.99;99259.34;10395238;28;20048;-83
2022/06/19 22:23:48;;;;;;;12.88;4.25;;;;;;;22.26;45.62;99256.31;10393559;28;20061;-83
2022/06/19 22:28:54;;;;;;;11.93;4.00;;;;;;;22.10;46.21;99251.97;10386726;28;20057;-83
2022/06/19 22:33:56;;;;;;;11.60;3.83;;;;;;;22.15;46.10;99240.78;10395622;28;20461;-83
2022/06/19 22:39:01;;;;;;;12.00;3.78;;;;;;;22.14;46.07;99229.31;10392364;28;20049;-83
2022/06/19 22:44:13;;;;;;;10.98;3.78;;;;;;;22.27;46.31;99237.47;10392858;28;20064;-83
2022/06/19 22:49:17;;;;;;;10.95;3.75;;;;;;;22.26;45.91;99243.81;10394177;28;20057;-83
2022/06/19 22:54:20;;;;;;;11.85;3.72;;;;;;;22.08;46.28;99251.34;10390272;28;20450;-83
2022/06/19 23:05:06;;;;;;;11.40;3.80;;;;;;;21.95;47.20;99261.72;10408362;28;20979;-83
2022/06/19 23:10:11;;;;;;;13.60;4.18;;;;;;;21.87;47.40;99251.16;10406984;28;20456;-83
2022/06/19 23:15:13;;;;;;;11.05;3.60;;;;;;;21.72;47.73;99247.66;10391811;28;20561;-83
2022/06/19 23:20:43;;;;;;;12.68;3.80;;;;;;;21.11;49.25;99248.50;10407471;28;20037;-83
2022/06/19 23:25:58;;;;;;;14.57;3.90;;;;;;;21.04;49.44;99229.78;10401953;28;20579;-83
2022/06/19 23:30:59;;;;;;;10.52;3.80;;;;;;;21.18;49.12;99233.53;10394049;28;20053;-83
2022/06/19 23:36:01;;;;;;;11.30;3.60;;;;;;;21.38;48.81;99248.03;10392390;28;20729;-83
2022/06/19 23:41:06;;;;;;;9.20;3.70;;;;;;;21.37;48.92;99259.72;10400727;28;20045;-83
2022/06/19 23:46:14;;;;;;;12.27;4.20;;;;;;;21.18;49.75;99259.28;10416551;28;20049;-83
2022/06/19 23:51:18;;;;;;;12.55;4.10;;;;;;;21.23;49.27;99243.63;10401198;28;20045;-83
2022/06/19 23:56:21;;;;;;;14.15;3.97;;;;;;;20.95;50.02;99252.09;10400274;28;20057;-83
